Time;durP1;ratioP1;P1;durP2;ratioP2;P2;SDS_P1;SDS_P2;PMS_P1;PMS_P2;Temp;Humidity;BMP_temperature;BMP_pressure;BME280_temperature;BME280_humidity;BME280_pressure;Samples;Min_cycle;Max_cycle;Signal;HPM_P1;HPM_P2
2022/12/20 00:01:14;;;;;;;13.13;6.75;;;;;;;-8.41;100.00;102505.42;1687398;84;21003;-59
2022/12/20 00:03:41;;;;;;;15.28;7.50;;;;;;;-8.44;100.00;102499.14;1687144;84;20999;-60
2022/12/20 00:06:11;;;;;;;13.03;7.30;;;;;;;-8.45;100.00;102498.28;1686797;84;21486;-62
2022/12/20 00:08:38;;;;;;;12.78;7.30;;;;;;;-8.46;100.00;102507.98;1687621;83;20993;-59
2022/12/20 00:11:07;;;;;;;14.68;6.72;;;;;;;-8.51;100.00;102508.44;1687727;84;20951;-60
2022/12/20 00:13:36;;;;;;;12.95;6.87;;;;;;;-8.51;100.00;102508.44;1686279;83;21003;-60
2022/12/20 00:16:16;;;;;;;13.62;6.78;;;;;;;-8.52;100.00;102516.02;1687260;84;21459;-63
2022/12/20 00:18:44;;;;;;;8.90;5.42;;;;;;;-8.55;100.00;102505.50;1687688;84;21257;-62
2022/12/20 00:21:12;;;;;;;13.68;6.35;;;;;;;-8.57;100.00;102509.28;1687234;83;20966;-63
2022/12/20 00:23:39;;;;;;;11.00;5.97;;;;;;;-8.57;100.00;102505.49;1687210;83;21101;-63
2022/12/20 00:26:17;;;;;;;11.22;5.95;;;;;;;-8.57;100.00;102502.13;1686739;84;21545;-61
2022/12/20 00:28:44;;;;;;;10.32;5.87;;;;;;;-8.57;100.00;102509.71;1687695;84;21110;-62
2022/12/20 00:31:13;;;;;;;11.78;5.62;;;;;;;-8.59;100.00;102502.57;1687247;83;22031;-63
2022/12/20 00:33:40;;;;;;;12.68;5.75;;;;;;;-8.59;100.00;102502.57;1687115;84;21841;-62
2022/12/20 00:36:09;;;;;;;9.60;5.45;;;;;;;-8.60;100.00;102485.70;1656845;84;20978;-62
2022/12/20 00:38:37;;;;;;;9.23;5.42;;;;;;;-8.63;100.00;102486.56;1687522;84;21007;-62
2022/12/20 00:41:10;;;;;;;9.75;5.72;;;;;;;-8.63;100.00;102495.84;1687072;83;21010;-64
2022/12/20 00:43:37;;;;;;;9.48;5.25;;;;;;;-8.64;100.00;102494.98;1686867;84;21208;-64
2022/12/20 00:46:06;;;;;;;9.00;5.05;;;;;;;-8.66;100.00;102492.89;1687384;84;21570;-62
2022/12/20 00:48:33;;;;;;;9.50;5.03;;;;;;;-8.66;100.00;102494.16;1687813;84;20938;-62
2022/12/20 00:51:03;;;;;;;9.03;4.97;;;;;;;-8.67;100.00;102497.55;1686666;84;20987;-61
2022/12/20 00:53:31;;;;;;;11.78;4.92;;;;;;;-8.68;100.00;102488.68;1687718;84;21082;-61
2022/12/20 00:55:59;;;;;;;8.73;4.87;;;;;;;-8.68;100.00;102482.36;1687096;84;22843;-60
2022/12/20 00:58:27;;;;;;;8.93;4.40;;;;;;;-8.69;100.00;102475.20;1687147;84;21301;-60
2022/12/20 01:00:54;;;;;;;7.35;4.67;;;;;;;-8.71;100.00;102479.44;1686813;84;20962;-61
2022/12/20 01:03:24;;;;;;;9.43;4.72;;;;;;;-8.71;100.00;102479.44;1687360;83;21647;-60
2022/12/20 01:05:59;;;;;;;8.58;4.92;;;;;;;-8.76;100.00;102483.65;1686816;84;21011;-62
2022/12/20 01:08:28;;;;;;;10.68;4.92;;;;;;;-8.76;100.00;102483.65;1687434;84;21858;-60
2022/12/20 01:11:10;;;;;;;7.08;4.25;;;;;;;-8.79;100.00;102487.44;1686629;83;21000;-61
2022/12/20 01:13:41;;;;;;;10.55;5.42;;;;;;;-8.81;100.00;102471.46;1680243;84;20971;-61
2022/12/20 01:16:15;;;;;;;9.85;5.10;;;;;;;-8.84;100.00;102467.25;1687497;84;21081;-60
2022/12/20 01:18:43;;;;;;;9.50;5.30;;;;;;;-8.86;100.00;102462.64;1686908;83;20955;-63
2022/12/20 01:21:13;;;;;;;11.38;5.05;;;;;;;-8.86;100.00;102463.06;1687985;84;21958;-63
2022/12/20 01:23:40;;;;;;;11.83;4.15;;;;;;;-8.88;100.00;102460.95;1687299;83;20959;-60
2022/12/20 01:26:10;;;;;;;10.30;5.00;;;;;;;-8.90;100.00;102458.83;1687242;83;20971;-60
2022/12/20 01:28:39;;;;;;;8.55;4.45;;;;;;;-8.92;100.00;102456.75;1687178;84;21038;-61
2022/12/20 01:31:08;;;;;;;9.60;5.25;;;;;;;-8.92;100.00;102459.28;1687610;83;21803;-65
2022/12/20 01:33:37;;;;;;;8.05;4.22;;;;;;;-8.92;100.00;102461.81;1687825;84;20951;-60
2022/12/20 01:36:07;;;;;;;9.63;4.35;;;;;;;-8.90;100.00;102460.09;1687080;83;21558;-60
2022/12/20 01:38:35;;;;;;;7.92;4.45;;;;;;;-8.90;100.00;102460.09;1687315;84;21499;-60
2022/12/20 01:41:02;;;;;;;9.78;5.58;;;;;;;-8.88;100.00;102464.73;1687365;84;21782;-63
2022/12/20 01:43:49;;;;;;;9.85;4.97;;;;;;;-8.86;100.00;102468.12;1687202;84;21473;-60
2022/12/20 01:46:17;;;;;;;9.65;5.35;;;;;;;-8.87;100.00;102466.41;1687084;84;21220;-60
2022/12/20 01:48:50;;;;;;;10.85;5.83;;;;;;;-8.91;100.00;102454.63;1687425;84;21413;-59
2022/12/20 01:51:17;;;;;;;9.40;5.33;;;;;;;-8.91;100.00;102454.63;1686861;83;21029;-60
2022/12/20 01:53:45;;;;;;;10.38;5.20;;;;;;;-8.92;100.00;102451.70;1656778;84;21567;-60
2022/12/20 01:56:12;;;;;;;9.80;5.47;;;;;;;-8.94;100.00;102452.11;1686889;84;21149;-61
2022/12/20 01:58:39;;;;;;;10.43;5.45;;;;;;;-8.96;100.00;102448.77;1686562;83;21405;-60
2022/12/20 02:01:07;;;;;;;9.08;4.53;;;;;;;-8.98;100.00;102455.49;1686901;84;21532;-61
2022/12/20 02:03:34;;;;;;;13.20;5.65;;;;;;;-9.00;100.00;102451.72;1687212;83;21054;-60
2022/12/20 02:06:16;;;;;;;12.07;5.87;;;;;;;-9.00;100.00;102447.09;1687681;84;20899;-60
2022/12/20 02:08:44;;;;;;;9.58;4.67;;;;;;;-9.00;100.00;102453.41;1686836;84;21262;-62
2022/12/20 02:11:40;;;;;;;11.15;5.50;;;;;;;-8.99;100.00;102456.34;1687734;83;21505;-60
2022/12/20 02:14:13;;;;;;;12.13;5.47;;;;;;;-8.97;100.00;102454.67;1687649;84;21448;-60
2022/12/20 02:16:51;;;;;;;11.00;4.58;;;;;;;-8.95;100.00;102460.55;1687349;84;20864;-61
2022/12/20 02:19:39;;;;;;;13.40;5.95;;;;;;;-8.92;100.00;102461.38;1687481;83;21492;-62
2022/12/20 02:22:24;;;;;;;13.08;5.65;;;;;;;-8.88;100.00;102462.21;1687078;84;20943;-60
2022/12/20 02:25:33;;;;;;;8.38;5.10;;;;;;;-8.88;100.00;102460.95;1687367;83;21243;-60
2022/12/20 02:28:24;;;;;;;10.93;5.42;;;;;;;-8.88;100.00;102472.32;1687674;84;20991;-61
2022/12/20 02:30:51;;;;;;;10.90;5.55;;;;;;;-8.88;100.00;102474.84;1687916;83;21126;-61
2022/12/20 02:33:18;;;;;;;11.12;5.42;;;;;;;-8.92;100.00;102471.91;1687588;84;21627;-59
2022/12/20 02:35:45;;;;;;;10.18;5.70;;;;;;;-8.93;100.00;102477.82;1687940;83;21490;-62
2022/12/20 02:38:36;;;;;;;12.60;5.55;;;;;;;-8.95;100.00;102475.28;1686694;84;22001;-64
2022/12/20 02:41:20;;;;;;;9.43;5.33;;;;;;;-8.95;100.00;102471.91;1687486;83;21053;-62
2022/12/20 02:46:38;;;;;;;12.33;6.00;;;;;;;-9.00;100.00;102469.83;1687702;84;21015;-60
2022/12/20 02:49:13;;;;;;;10.10;5.42;;;;;;;-9.03;100.00;102463.52;1687136;84;20967;-62
2022/12/20 02:51:41;;;;;;;11.57;5.25;;;;;;;-9.05;100.00;102467.33;1687668;84;21872;-60
2022/12/20 02:54:09;;;;;;;10.20;4.67;;;;;;;-9.09;100.00;102475.33;1687497;84;20896;-60
2022/12/20 02:56:55;;;;;;;9.55;4.87;;;;;;;-9.09;100.00;102469.02;1687701;84;21525;-65
2022/12/20 02:59:46;;;;;;;12.40;5.12;;;;;;;-9.11;100.00;102466.90;1651490;84;21141;-63
2022/12/20 03:02:14;;;;;;;9.73;5.37;;;;;;;-9.14;100.00;102464.37;1686901;83;21038;-61
2022/12/20 03:04:43;;;;;;;12.47;5.62;;;;;;;-9.19;100.00;102472.82;1687821;84;21169;-61
2022/12/20 03:07:12;;;;;;;9.40;5.00;;;;;;;-9.25;100.00;102472.39;1686998;83;21011;-62
2022/12/20 03:09:41;;;;;;;11.83;5.40;;;;;;;-9.26;100.00;102470.72;1687746;83;21285;-63
2022/12/20 03:12:10;;;;;;;9.55;4.95;;;;;;;-9.33;100.00;102462.73;1687210;83;20959;-61
2022/12/20 03:14:39;;;;;;;18.48;5.62;;;;;;;-9.35;100.00;102459.38;1687457;83;21529;-63
2022/12/20 03:17:07;;;;;;;10.40;5.42;;;;;;;-9.36;100.00;102460.20;1686938;84;21807;-61
2022/12/20 03:19:35;;;;;;;11.28;5.33;;;;;;;-9.40;100.00;102455.99;1687469;84;21002;-64
2022/12/20 03:22:02;;;;;;;10.18;5.35;;;;;;;-9.27;100.00;102457.68;1687314;84;21783;-61
2022/12/20 03:24:31;;;;;;;11.10;5.12;;;;;;;-9.28;100.00;102461.02;1687195;83;21109;-60
2022/12/20 03:26:58;;;;;;;11.00;5.67;;;;;;;-9.30;100.00;102462.73;1686815;83;20975;-60
2022/12/20 03:29:26;;;;;;;12.82;5.92;;;;;;;-9.32;100.00;102460.61;1687209;83;21268;-59
2022/12/20 03:31:53;;;;;;;11.63;5.60;;;;;;;-9.34;100.00;102458.52;1687000;83;21135;-60
2022/12/20 03:34:20;;;;;;;11.43;6.03;;;;;;;-9.37;100.00;102458.52;1687687;84;20931;-62
2022/12/20 03:36:48;;;;;;;12.05;6.92;;;;;;;-9.41;100.00;102456.42;1686524;83;21004;-61
2022/12/20 03:39:16;;;;;;;12.73;6.60;;;;;;;-9.43;100.00;102458.13;1687158;83;21545;-60
2022/12/20 03:41:43;;;;;;;10.65;5.80;;;;;;;-9.46;100.00;102446.76;1687201;83;21256;-62
2022/12/20 03:44:12;;;;;;;12.70;5.20;;;;;;;-9.49;100.00;102453.49;1687634;84;21074;-59
2022/12/20 03:46:40;;;;;;;12.75;5.70;;;;;;;-9.50;100.00;102464.44;1687009;84;21489;-62
2022/12/20 03:49:07;;;;;;;12.85;6.90;;;;;;;-9.50;100.00;102460.66;1687382;84;21651;-61
2022/12/20 03:51:36;;;;;;;11.38;5.62;;;;;;;-9.51;100.00;102460.21;1686807;84;20998;-62
2022/12/20 03:54:04;;;;;;;12.58;5.55;;;;;;;-9.53;100.00;102464.02;1687937;83;22090;-60
2022/12/20 03:56:33;;;;;;;12.70;6.35;;;;;;;-9.56;100.00;102454.74;1682169;84;21045;-64
2022/12/20 03:59:00;;;;;;;11.50;5.87;;;;;;;-9.59;100.00;102455.17;1687775;83;21386;-60
2022/12/20 04:01:28;;;;;;;11.03;5.92;;;;;;;-9.63;100.00;102451.80;1687056;84;21082;-62
2022/12/20 04:03:56;;;;;;;10.70;6.15;;;;;;;-9.66;100.00;102451.83;1687160;84;21884;-60
2022/12/20 04:06:23;;;;;;;13.53;6.42;;;;;;;-9.70;100.00;102451.38;1673218;84;21350;-63
2022/12/20 04:08:51;;;;;;;11.08;6.08;;;;;;;-9.73;100.00;102453.92;1672344;85;21089;-62
2022/12/20 04:11:20;;;;;;;13.38;7.10;;;;;;;-9.74;100.00;102457.27;1671937;85;21073;-60
2022/12/20 04:13:50;;;;;;;13.13;6.25;;;;;;;-9.77;100.00;102452.64;1670805;83;20963;-61
2022/12/20 04:16:20;;;;;;;12.07;6.08;;;;;;;-9.78;100.00;102450.96;1672809;83;21049;-60
2022/12/20 04:18:47;;;;;;;11.97;5.60;;;;;;;-9.80;100.00;102454.76;1672457;85;21864;-61
2022/12/20 04:21:14;;;;;;;9.80;5.03;;;;;;;-9.82;100.00;102450.12;1672587;85;21822;-63
2022/12/20 04:23:43;;;;;;;9.85;5.25;;;;;;;-9.82;100.00;102453.91;1672357;85;21064;-60
2022/12/20 04:26:12;;;;;;;10.25;5.80;;;;;;;-9.83;100.00;102453.06;1673001;85;21007;-60
2022/12/20 04:28:40;;;;;;;12.23;5.70;;;;;;;-9.79;100.00;102460.22;1672648;83;21018;-63
2022/12/20 04:31:09;;;;;;;13.85;6.53;;;;;;;-9.76;100.00;102456.44;1672323;85;21314;-63
2022/12/20 04:33:36;;;;;;;14.55;6.65;;;;;;;-9.72;100.00;102456.86;1672422;85;21515;-60
2022/12/20 04:36:04;;;;;;;10.55;5.47;;;;;;;-9.71;100.00;102459.80;1672809;85;20986;-61
2022/12/20 04:38:31;;;;;;;13.00;5.75;;;;;;;-9.69;100.00;102461.08;1640952;85;21018;-62
2022/12/20 04:40:58;;;;;;;11.60;5.75;;;;;;;-9.70;100.00;102463.16;1672495;85;21021;-63
2022/12/20 04:43:26;;;;;;;11.50;6.67;;;;;;;-9.70;100.00;102469.05;1671974;85;21164;-60
2022/12/20 04:45:55;;;;;;;12.63;6.08;;;;;;;-9.71;100.00;102464.84;1672408;85;21454;-60
2022/12/20 04:48:26;;;;;;;13.35;6.90;;;;;;;-9.70;100.00;102475.78;1672357;85;21061;-61
2022/12/20 04:50:55;;;;;;;12.90;6.47;;;;;;;-9.72;100.00;102472.00;1672659;85;21077;-63
2022/12/20 04:56:09;;;;;;;14.80;6.92;;;;;;;-9.70;100.00;102472.83;1672660;83;21217;-64
2022/12/20 04:58:36;;;;;;;11.57;6.60;;;;;;;-9.73;100.00;102475.38;1671592;84;21532;-63
2022/12/20 05:01:05;;;;;;;14.50;6.87;;;;;;;-9.75;100.00;102470.73;1641118;85;21018;-63
2022/12/20 05:03:34;;;;;;;11.78;6.47;;;;;;;-9.65;100.00;102472.86;1671285;85;21026;-60
2022/12/20 05:06:01;;;;;;;12.55;6.62;;;;;;;-9.67;100.00;102466.52;1672577;84;21009;-60
2022/12/20 05:08:29;;;;;;;10.85;5.37;;;;;;;-9.69;100.00;102467.39;1672120;85;21317;-60
2022/12/20 05:10:57;;;;;;;12.10;7.10;;;;;;;-9.73;100.00;102475.38;1671956;85;21041;-60
2022/12/20 05:13:24;;;;;;;17.23;6.78;;;;;;;-9.78;100.00;102473.25;1673160;85;21054;-61
2022/12/20 05:15:53;;;;;;;12.25;6.53;;;;;;;-9.80;100.00;102473.69;1672865;85;21006;-61
2022/12/20 05:18:22;;;;;;;9.85;5.53;;;;;;;-9.82;100.00;102474.09;1672118;85;21058;-63
2022/12/20 05:26:16;;;;;;;12.82;5.78;;;;;;;-9.84;100.00;102472.00;1672108;85;21710;-60
2022/12/20 05:26:18;;;;;;;15.53;6.97;;;;;;;-9.87;100.00;102465.69;1637654;85;21086;-62
2022/12/20 05:28:46;;;;;;;16.48;7.28;;;;;;;-9.86;100.00;102468.62;1672165;85;21809;-62
2022/12/20 05:31:14;;;;;;;16.65;8.28;;;;;;;-9.82;100.00;102469.05;1673079;83;21061;-61
2022/12/20 05:33:41;;;;;;;16.60;8.05;;;;;;;-9.70;100.00;102466.52;1672380;85;21328;-62
2022/12/20 05:36:09;;;;;;;16.60;7.42;;;;;;;-9.48;100.00;102462.73;1671874;85;21303;-63
2022/12/20 05:38:37;;;;;;;15.23;7.42;;;;;;;-9.21;100.00;102450.07;1672940;85;21096;-61
2022/12/20 05:41:06;;;;;;;11.12;6.45;;;;;;;-8.79;100.00;102442.38;1671910;85;20994;-61
2022/12/20 05:43:33;;;;;;;13.65;6.53;;;;;;;-7.77;100.00;102451.88;1672313;85;20935;-63
2022/12/20 05:46:01;;;;;;;9.03;5.00;;;;;;;-7.77;100.00;102451.88;1672638;85;21515;-61
2022/12/20 05:48:30;;;;;;;16.67;7.87;;;;;;;-7.27;100.00;102445.95;1671318;85;21077;-62
2022/12/20 05:50:58;;;;;;;15.43;7.10;;;;;;;-6.72;100.00;102453.80;1672623;85;21150;-61
2022/12/20 05:53:27;;;;;;;12.90;6.12;;;;;;;-6.23;100.00;102453.17;1671914;85;21018;-65
2022/12/20 05:55:56;;;;;;;13.03;7.05;;;;;;;-5.77;100.00;102457.53;1672611;85;20985;-63
2022/12/20 05:58:25;;;;;;;14.85;7.75;;;;;;;-5.29;100.00;102453.77;1672164;85;22373;-62
2022/12/20 06:00:55;;;;;;;11.38;6.35;;;;;;;-4.82;100.00;102445.67;1672804;85;21085;-62
2022/12/20 06:03:22;;;;;;;13.95;7.05;;;;;;;-4.36;100.00;102442.17;1673180;85;21106;-61
2022/12/20 06:05:50;;;;;;;14.78;8.50;;;;;;;-3.95;100.00;102442.95;1671926;85;20993;-63
2022/12/20 06:08:20;;;;;;;12.50;7.10;;;;;;;-3.52;100.00;102439.38;1671443;85;21011;-61
2022/12/20 06:10:50;;;;;;;12.65;6.95;;;;;;;-3.09;100.00;102444.19;1672728;85;21496;-60
2022/12/20 06:13:18;;;;;;;11.88;6.75;;;;;;;-2.73;100.00;102430.86;1672543;85;21018;-61
2022/12/20 06:15:45;;;;;;;11.12;6.85;;;;;;;-2.38;100.00;102434.09;1672298;83;20962;-61
2022/12/20 06:18:13;;;;;;;11.63;7.47;;;;;;;-2.00;100.00;102435.91;1672189;85;21804;-62
2022/12/20 06:20:40;;;;;;;12.43;7.62;;;;;;;-1.65;100.00;102422.42;1673524;85;21879;-61
2022/12/20 06:23:09;;;;;;;11.68;6.97;;;;;;;-1.27;100.00;102416.00;1673209;85;21169;-61
2022/12/20 06:25:38;;;;;;;11.08;6.60;;;;;;;-0.91;100.00;102417.72;1671021;85;21066;-62
2022/12/20 06:28:06;;;;;;;11.60;6.92;;;;;;;-0.59;100.00;102414.40;1672073;85;22389;-62
2022/12/20 06:30:34;;;;;;;12.43;8.13;;;;;;;-0.31;100.00;102416.27;1672907;85;21808;-61
2022/12/20 06:33:07;;;;;;;11.60;7.00;;;;;;;-0.19;100.00;102411.56;1672470;85;21074;-61
2022/12/20 06:35:34;;;;;;;11.70;7.70;;;;;;;-0.16;100.00;102411.45;1672441;85;21276;-62
2022/12/20 06:38:02;;;;;;;11.45;7.45;;;;;;;-0.09;100.00;102406.02;1672296;85;20958;-63
2022/12/20 06:40:33;;;;;;;11.95;7.10;;;;;;;0.13;100.00;102409.84;1673276;85;21413;-60
2022/12/20 06:43:01;;;;;;;12.58;7.62;;;;;;;0.49;100.00;102413.05;1672662;84;20911;-60
2022/12/20 06:45:29;;;;;;;12.63;8.00;;;;;;;0.81;100.00;102405.27;1672868;85;21006;-64
2022/12/20 06:47:59;;;;;;;11.30;8.13;;;;;;;1.10;100.00;102403.98;1640322;85;21406;-64
2022/12/20 06:50:27;;;;;;;;;;;;;;;1.42;100.00;102399.10;1643887;85;21077;-61
2022/12/20 06:52:55;;;;;;;11.63;7.20;;;;;;;1.70;100.00;102401.20;1673215;85;20474;-62
2022/12/20 06:55:24;;;;;;;12.90;7.70;;;;;;;1.87;100.00;102400.41;1672583;85;21269;-65
2022/12/20 06:57:52;;;;;;;10.93;7.53;;;;;;;2.05;100.00;102393.09;1672577;83;21018;-63
2022/12/20 07:00:21;;;;;;;11.03;7.03;;;;;;;2.37;100.00;102384.22;1672543;85;21177;-63
2022/12/20 07:02:48;;;;;;;11.03;6.57;;;;;;;2.71;100.00;102379.92;1672779;85;21267;-63
2022/12/20 07:05:15;;;;;;;12.80;8.47;;;;;;;3.07;100.00;102377.98;1672741;84;21247;-65
2022/12/20 07:07:43;;;;;;;13.63;7.33;;;;;;;3.21;100.00;102372.07;1672476;83;21200;-66
2022/12/20 07:10:10;;;;;;;11.67;7.27;;;;;;;3.41;100.00;102373.58;1672305;83;21683;-66
2022/12/20 07:12:39;;;;;;;10.07;7.17;;;;;;;3.65;100.00;102372.67;1673411;85;21585;-64
2022/12/20 07:15:08;;;;;;;10.43;7.33;;;;;;;3.86;100.00;102379.20;1672839;85;21276;-63
2022/12/20 07:17:35;;;;;;;11.20;7.80;;;;;;;4.39;100.00;102379.14;1672917;85;21356;-69
2022/12/20 07:20:03;;;;;;;12.40;8.63;;;;;;;4.39;100.00;102379.14;1671842;85;21458;-64
2022/12/20 07:22:33;;;;;;;10.77;7.67;;;;;;;4.47;100.00;102378.69;1673261;85;21823;-64
2022/12/20 07:25:00;;;;;;;11.90;8.70;;;;;;;4.50;100.00;102373.31;1673106;85;21527;-64
2022/12/20 07:27:27;;;;;;;11.50;8.70;;;;;;;4.61;100.00;102374.80;1673217;85;22034;-63
2022/12/20 07:29:55;;;;;;;11.17;8.27;;;;;;;4.71;100.00;102379.42;1672434;85;21755;-67
2022/12/20 07:32:22;;;;;;;13.00;9.47;;;;;;;4.79;100.00;102369.45;1672791;85;22531;-65
2022/12/20 07:34:50;;;;;;;15.10;9.90;;;;;;;4.94;100.00;102376.73;1673104;85;22169;-65
2022/12/20 07:37:17;;;;;;;14.20;10.33;;;;;;;4.95;100.00;102370.62;1673241;85;21714;-65
2022/12/20 07:39:45;;;;;;;13.40;10.00;;;;;;;5.04;100.00;102372.20;1673287;85;21557;-67
2022/12/20 07:42:12;;;;;;;14.93;10.97;;;;;;;5.16;100.00;102371.07;1672677;83;21563;-71
2022/12/20 07:44:42;;;;;;;13.23;9.73;;;;;;;5.20;100.00;102374.66;1673417;85;22762;-64
2022/12/20 07:47:12;;;;;;;13.70;9.63;;;;;;;5.30;100.00;102374.45;1673162;85;21625;-64
2022/12/20 07:49:40;;;;;;;12.83;9.17;;;;;;;5.30;100.00;102371.87;1672774;85;21702;-70
2022/12/20 07:52:07;;;;;;;13.77;9.53;;;;;;;5.28;100.00;102369.83;1671998;83;21653;-64
2022/12/20 07:54:37;;;;;;;13.73;9.67;;;;;;;5.28;100.00;102368.53;1672820;85;22948;-65
2022/12/20 07:57:11;;;;;;;14.17;10.37;;;;;;;5.32;100.00;102367.88;1673120;83;21018;-66
2022/12/20 07:59:43;;;;;;;13.73;10.73;;;;;;;5.29;100.00;102368.89;1672815;85;21745;-68
2022/12/20 08:02:14;;;;;;;15.13;10.77;;;;;;;5.12;100.00;102367.38;1672579;83;22710;-66
2022/12/20 08:04:42;;;;;;;14.85;10.25;;;;;;;4.97;100.00;102365.75;1673020;85;22619;-65
2022/12/20 08:07:09;;;;;;;14.77;10.43;;;;;;;4.72;100.00;102357.83;1682764;84;21050;-64
2022/12/20 08:09:39;;;;;;;15.63;11.20;;;;;;;4.55;100.00;102358.39;1687160;84;21727;-68
2022/12/20 08:12:07;;;;;;;14.33;10.30;;;;;;;4.44;100.00;102358.20;1686931;84;21783;-69
2022/12/20 08:14:34;;;;;;;15.90;11.53;;;;;;;4.29;100.00;102353.48;1687880;83;22170;-64
2022/12/20 08:17:01;;;;;;;16.17;11.67;;;;;;;4.21;100.00;102352.28;1687444;84;21546;-64
2022/12/20 08:19:29;;;;;;;15.83;11.23;;;;;;;4.12;100.00;102349.30;1687837;84;21705;-64
2022/12/20 08:21:57;;;;;;;16.20;11.00;;;;;;;4.11;100.00;102347.64;1687143;84;21749;-66
2022/12/20 08:24:25;;;;;;;13.40;10.20;;;;;;;4.09;100.00;102348.20;1687147;83;21590;-68
2022/12/20 08:26:52;;;;;;;16.23;10.60;;;;;;;4.02;100.00;102342.20;1687549;84;21834;-63
2022/12/20 08:29:20;;;;;;;15.10;11.13;;;;;;;3.88;100.00;102335.25;1687513;83;21329;-60
2022/12/20 08:31:48;;;;;;;14.23;10.07;;;;;;;3.83;100.00;102335.98;1687584;84;21359;-63
2022/12/20 08:34:15;;;;;;;15.20;9.53;;;;;;;3.77;100.00;102328.58;1687167;83;22004;-69
2022/12/20 08:36:42;;;;;;;13.93;9.93;;;;;;;3.84;100.00;102326.03;1687073;84;21323;-64
2022/12/20 08:39:11;;;;;;;16.07;11.00;;;;;;;3.90;100.00;102321.35;1687630;83;21347;-63
2022/12/20 08:41:38;;;;;;;14.77;10.73;;;;;;;3.98;100.00;102317.03;1688107;84;21062;-63
2022/12/20 08:44:06;;;;;;;16.93;11.50;;;;;;;3.89;100.00;102314.97;1687597;84;21477;-67
2022/12/20 08:46:35;;;;;;;15.27;11.20;;;;;;;3.74;100.00;102305.54;1687112;84;21407;-64
2022/12/20 08:49:04;;;;;;;17.10;12.00;;;;;;;3.62;100.00;102307.07;1687728;84;21413;-64
2022/12/20 08:51:32;;;;;;;16.87;11.60;;;;;;;3.66;100.00;102297.78;1687771;84;21175;-63
2022/12/20 08:53:59;;;;;;;15.57;11.23;;;;;;;3.76;100.00;102292.94;1686941;84;21120;-62
2022/12/20 08:56:26;;;;;;;15.67;10.87;;;;;;;3.83;100.00;102284.39;1687568;84;21308;-67
2022/12/20 08:58:53;;;;;;;14.50;9.73;;;;;;;3.99;100.00;102281.73;1687151;84;21129;-64
2022/12/20 09:01:22;;;;;;;15.47;9.83;;;;;;;4.10;100.00;102276.77;1687677;84;21208;-63
2022/12/20 09:03:49;;;;;;;15.63;10.07;;;;;;;4.24;100.00;102271.59;1687745;84;21155;-68
2022/12/20 09:06:19;;;;;;;12.70;9.70;;;;;;;4.34;100.00;102271.88;1687463;84;21374;-64
2022/12/20 09:08:46;;;;;;;14.70;9.90;;;;;;;4.34;100.00;102270.59;1686990;83;21210;-65
2022/12/20 09:11:22;;;;;;;12.43;8.10;;;;;;;4.47;100.00;102271.52;1687633;84;21318;-63
2022/12/20 09:13:52;;;;;;;11.33;8.37;;;;;;;4.67;100.00;102267.70;1686858;84;21320;-65
2022/12/20 09:16:27;;;;;;;12.10;7.47;;;;;;;4.84;100.00;102262.76;1687652;84;22528;-67
2022/12/20 09:18:56;;;;;;;11.60;7.73;;;;;;;4.88;100.00;102257.76;1687522;83;22161;-63
2022/12/20 09:21:23;;;;;;;11.70;8.43;;;;;;;4.74;100.00;102253.48;1688129;84;21037;-63
2022/12/20 09:23:51;;;;;;;12.53;8.10;;;;;;;4.47;100.00;102249.56;1686931;84;21239;-64
2022/12/20 09:26:19;;;;;;;13.37;7.73;;;;;;;4.26;100.00;102241.36;1687340;84;21469;-67
2022/12/20 09:28:47;;;;;;;12.87;8.00;;;;;;;4.18;100.00;102234.55;1686905;84;21783;-63
2022/12/20 09:31:17;;;;;;;13.80;8.30;;;;;;;4.19;100.00;102231.03;1687448;83;21246;-64
2022/12/20 09:33:44;;;;;;;13.90;8.37;;;;;;;4.26;100.00;102230.21;1687105;83;21314;-67
2022/12/20 09:36:14;;;;;;;13.17;8.60;;;;;;;4.34;100.00;102225.41;1687342;84;21311;-64
2022/12/20 09:38:41;;;;;;;12.60;8.57;;;;;;;4.43;100.00;102213.67;1688144;84;21625;-61
2022/12/20 09:41:37;;;;;;;16.27;9.23;;;;;;;4.46;100.00;102215.61;1688202;84;21806;-61
2022/12/20 09:44:28;;;;;;;17.20;9.70;;;;;;;4.44;100.00;102205.84;1688221;83;21297;-63
2022/12/20 09:46:59;;;;;;;12.93;8.58;;;;;;;4.39;100.00;102199.69;1687544;83;21615;-66
2022/12/20 09:49:32;;;;;;;14.13;9.50;;;;;;;4.23;100.00;102193.78;1686875;84;20998;-63
2022/12/20 09:52:17;;;;;;;17.23;9.53;;;;;;;4.19;100.00;102187.16;1688245;83;20991;-60
2022/12/20 09:55:11;;;;;;;13.78;9.03;;;;;;;4.23;100.00;102189.91;1686845;84;21182;-63
2022/12/20 09:58:12;;;;;;;14.05;9.45;;;;;;;4.30;100.00;102189.08;1655260;83;21046;-60
2022/12/20 10:00:44;;;;;;;14.03;9.55;;;;;;;4.32;100.00;102184.20;1688121;84;22075;-60
2022/12/20 10:03:15;;;;;;;15.98;9.70;;;;;;;4.41;100.00;102181.50;1688488;83;20979;-60
2022/12/20 10:05:50;;;;;;;18.25;10.65;;;;;;;4.54;100.00;102181.55;1688595;83;21062;-60
2022/12/20 10:08:42;;;;;;;15.23;10.18;;;;;;;4.68;100.00;102172.94;1676068;84;21538;-60
2022/12/20 10:11:59;;;;;;;16.07;10.57;;;;;;;4.78;100.00;102170.97;1673632;85;20966;-59
2022/12/20 10:14:47;;;;;;;17.23;10.03;;;;;;;4.77;100.00;102161.58;1674009;85;21361;-59
2022/12/20 10:17:25;;;;;;;16.20;10.82;;;;;;;4.68;100.00;102158.27;1673203;85;21447;-60
2022/12/20 10:20:10;;;;;;;15.68;10.20;;;;;;;4.74;100.00;102151.90;1673087;85;20962;-60
2022/12/20 10:22:45;;;;;;;15.38;10.03;;;;;;;4.87;100.00;102148.87;1673342;85;22485;-60
2022/12/20 10:25:23;;;;;;;16.55;10.38;;;;;;;4.93;100.00;102140.73;1672973;85;21054;-59
2022/12/20 10:27:51;;;;;;;14.47;9.58;;;;;;;4.98;100.00;102135.26;1672658;85;20906;-62
2022/12/20 10:30:21;;;;;;;19.15;12.50;;;;;;;5.06;100.00;102129.94;1673169;85;21098;-59
2022/12/20 10:32:51;;;;;;;16.25;10.65;;;;;;;5.13;100.00;102118.27;1673259;85;21022;-60
2022/12/20 10:35:27;;;;;;;14.13;9.85;;;;;;;5.16;100.00;102131.47;1673040;85;21288;-59
2022/12/20 10:38:01;;;;;;;15.50;10.45;;;;;;;5.09;100.00;102127.63;1672423;85;21601;-63
2022/12/20 10:40:36;;;;;;;16.30;11.57;;;;;;;5.04;100.00;102124.53;1672665;85;21084;-59
2022/12/20 10:43:04;;;;;;;18.80;11.50;;;;;;;5.08;100.00;102124.22;1673148;84;21319;-62
2022/12/20 10:45:35;;;;;;;16.93;11.10;;;;;;;5.18;100.00;102115.84;1672956;85;20954;-63
2022/12/20 10:48:10;;;;;;;16.85;9.83;;;;;;;5.25;100.00;102115.80;1673142;85;21812;-58
2022/12/20 10:50:37;;;;;;;19.53;11.60;;;;;;;5.23;100.00;102109.45;1672975;85;21026;-60
2022/12/20 10:53:19;;;;;;;19.23;13.13;;;;;;;5.08;100.00;102107.42;1672383;83;21042;-64
2022/12/20 10:55:47;;;;;;;20.23;13.38;;;;;;;4.98;100.00;102108.95;1672873;85;22510;-60
2022/12/20 10:58:35;;;;;;;21.47;13.40;;;;;;;4.84;100.00;102109.02;1673055;83;21183;-59
2022/12/20 11:01:16;;;;;;;22.17;13.23;;;;;;;4.70;100.00;102103.91;1672709;85;21934;-60
2022/12/20 11:04:04;;;;;;;22.37;14.53;;;;;;;4.52;100.00;102096.91;1673533;85;21236;-60
2022/12/20 11:06:42;;;;;;;20.30;13.88;;;;;;;4.35;100.00;102092.80;1672567;85;21073;-61
2022/12/20 11:09:36;;;;;;;23.67;14.23;;;;;;;4.26;100.00;102089.05;1673305;85;21070;-60
2022/12/20 11:12:13;;;;;;;24.52;13.78;;;;;;;4.13;100.00;102082.56;1672121;83;20954;-61
2022/12/20 11:14:42;;;;;;;23.07;15.05;;;;;;;4.00;100.00;102073.91;1673079;85;21595;-62
2022/12/20 11:17:29;;;;;;;27.25;16.62;;;;;;;3.85;100.00;102066.66;1673337;85;21524;-59
2022/12/20 11:20:25;;;;;;;18.40;11.80;;;;;;;3.73;100.00;102059.68;1673171;85;21446;-60
2022/12/20 11:23:32;;;;;;;15.78;10.78;;;;;;;3.64;100.00;102066.23;1673042;85;20970;-64
2022/12/20 11:26:11;;;;;;;20.95;13.78;;;;;;;3.60;100.00;102056.21;1673550;83;20983;-60
2022/12/20 11:29:06;;;;;;;18.20;11.60;;;;;;;3.71;100.00;102051.66;1668029;83;21803;-60
2022/12/20 11:32:21;;;;;;;14.83;9.93;;;;;;;3.82;100.00;102050.54;1672807;85;21074;-65
2022/12/20 11:35:06;;;;;;;24.15;14.23;;;;;;;4.03;100.00;102054.84;1672126;85;20994;-62
2022/12/20 11:37:44;;;;;;;20.52;14.20;;;;;;;4.15;100.00;102039.39;1672318;85;21446;-61
2022/12/20 11:40:22;;;;;;;21.23;13.40;;;;;;;4.22;100.00;102039.02;1673271;85;20922;-60